Main page
METAR-TAF:

METAR-TAF

Airports :

O. R. Tambo International Airport

Johannesburg, South Africa

latitude: 26-08S, longitude: 028-14E, elevation: 1694 m

Current weather observation

The report was made 57 minutes ago, at 21:00 UTC
Wind 9 kt from the Northwest
Temperature 11°C
Humidity 58%
Pressure 1027 hPa
Visibility 10 km or more
no clouds below 1500 m and no cumulonimbus

METAR: FAOR 172100Z 31009KT CAVOK 11/03 Q1027 NOSIG

Time: 23:57 (21:57 UTC)

Forecast

The report was made 5 hours and 57 minutes ago, at 16:00 UTC
Forecast valid from 17 at 18 UTC to 18 at 24 UTC
Wind 10 kt from the Northwest
Visibility 10 km or more
no clouds below 1500 m and no cumulonimbus
From 18 at 1000 UTC
Wind 8 kt from the Southwest
Visibility 10 km or more
no clouds below 1500 m and no cumulonimbus
Becoming
from 18 at 16 UTC to 18 at 18 UTC
Wind 3 kt from variable directions

TAF: FAOR 171600Z 1718/1824 32010KT CAVOK FM181000 23008KT CAVOK BECMG 1816/1818 VRB03KT TX20/1813Z TN07/1804Z

Weather observations and forecasts of more than 4000 airports (METAR and TAF reports).

The available stations are represented by yellow and red dots on the map.

Hover mouse over dot to see the name of the station.

Then click to see weather observations and forecasts.

To change the map : click on the green buttons with a black cross to zoom in, on the green button with a dash to zoom out, or on the green arrows for adjacent maps.


METAR-TAF: